Time;durP1;ratioP1;P1;durP2;ratioP2;P2;SDS_P1;SDS_P2;PMS_P1;PMS_P2;Temp;Humidity;BMP_temperature;BMP_pressure;BME280_temperature;BME280_humidity;BME280_pressure;Samples;Min_cycle;Max_cycle;Signal;HPM_P1;HPM_P2
2023/09/30 00:00:29;;;;;;;1.25;1.13;;;21.50;67.90;;;;;;6262535;28;20025;-69
2023/09/30 00:03:29;;;;;;;1.02;0.88;;;21.60;68.00;;;;;;6267904;28;20033;-69
2023/09/30 00:06:30;;;;;;;1.13;0.88;;;21.50;67.80;;;;;;6268398;28;20025;-70
2023/09/30 00:09:31;;;;;;;1.15;1.00;;;21.50;67.80;;;;;;6266652;28;20522;-69
2023/09/30 00:12:32;;;;;;;1.70;1.15;;;21.60;67.90;;;;;;6265521;28;20021;-70
2023/09/30 00:15:33;;;;;;;1.52;1.10;;;21.60;68.80;;;;;;6265985;28;20079;-69
2023/09/30 00:18:34;;;;;;;0.88;0.88;;;21.50;67.80;;;;;;6256232;28;20492;-70
2023/09/30 00:21:35;;;;;;;1.92;1.17;;;21.60;68.00;;;;;;6261860;28;20110;-70
2023/09/30 00:24:36;;;;;;;1.10;1.00;;;21.60;68.00;;;;;;6268440;28;20448;-69
2023/09/30 00:27:37;;;;;;;1.00;0.90;;;21.50;67.90;;;;;;6266109;28;20120;-69
2023/09/30 00:30:38;;;;;;;1.00;0.90;;;21.60;68.00;;;;;;6253237;28;20024;-69
2023/09/30 00:33:39;;;;;;;1.50;1.10;;;21.60;68.00;;;;;;6268176;28;20028;-69
2023/09/30 00:36:40;;;;;;;1.00;0.90;;;21.60;68.00;;;;;;6263761;28;20021;-70
2023/09/30 00:39:41;;;;;;;1.25;0.90;;;21.50;67.90;;;;;;6263346;28;20051;-70
2023/09/30 00:42:42;;;;;;;1.20;0.90;;;21.60;68.00;;;;;;6262331;28;20030;-69
2023/09/30 00:45:43;;;;;;;1.25;1.10;;;21.50;67.90;;;;;;6254336;28;20024;-70
2023/09/30 00:48:46;;;;;;;1.55;1.20;;;21.50;67.90;;;;;;6269931;28;20025;-71
2023/09/30 00:51:49;;;;;;;1.10;1.00;;;21.50;67.90;;;;;;6259234;28;20100;-69
2023/09/30 00:54:51;;;;;;;1.67;0.90;;;21.60;68.00;;;;;;6263078;28;20029;-70
2023/09/30 00:57:52;;;;;;;0.93;0.90;;;21.50;67.90;;;;;;6255829;28;20481;-69
2023/09/30 01:00:54;;;;;;;1.00;0.90;;;21.60;68.00;;;;;;6261879;28;20025;-71
2023/09/30 01:03:55;;;;;;;1.08;0.98;;;21.60;68.50;;;;;;6261806;28;20032;-72
2023/09/30 01:06:57;;;;;;;1.60;0.90;;;21.50;67.90;;;;;;6262497;28;20110;-70
2023/09/30 01:09:58;;;;;;;1.42;1.13;;;21.60;68.00;;;;;;6268817;28;20027;-69
2023/09/30 01:12:58;;;;;;;1.25;1.02;;;21.50;67.90;;;;;;6270085;28;20021;-70
2023/09/30 01:16:06;;;;;;;1.65;1.00;;;21.60;68.00;;;;;;6261025;28;20025;-69
2023/09/30 01:19:07;;;;;;;1.10;1.00;;;21.50;67.90;;;;;;6254850;28;20028;-71
2023/09/30 01:22:09;;;;;;;1.25;1.08;;;21.50;67.90;;;;;;6263404;28;20021;-69
2023/09/30 01:25:10;;;;;;;1.20;1.00;;;21.50;67.90;;;;;;6267379;28;20024;-70
2023/09/30 01:28:12;;;;;;;1.25;0.98;;;21.60;68.00;;;;;;6262288;28;20104;-69
2023/09/30 01:31:13;;;;;;;1.23;0.88;;;21.60;68.00;;;;;;6260200;28;20044;-71
2023/09/30 01:34:15;;;;;;;1.08;0.90;;;21.60;68.00;;;;;;6256556;28;20112;-69
2023/09/30 01:37:16;;;;;;;1.00;0.88;;;21.60;68.00;;;;;;6269489;28;20104;-70
2023/09/30 01:40:18;;;;;;;1.33;1.05;;;21.60;68.00;;;;;;6260613;28;20044;-70
2023/09/30 01:43:18;;;;;;;1.40;1.20;;;21.50;67.90;;;;;;6268536;28;20017;-70
2023/09/30 01:46:19;;;;;;;2.47;1.17;;;21.60;68.00;;;;;;6261837;28;20395;-69
2023/09/30 01:49:23;;;;;;;1.05;0.95;;;21.50;67.90;;;;;;6268840;28;20109;-69
2023/09/30 01:52:24;;;;;;;1.00;0.90;;;21.60;68.00;;;;;;6258555;28;20022;-69
2023/09/30 01:55:25;;;;;;;1.10;1.00;;;21.50;67.90;;;;;;6262540;28;20400;-69
2023/09/30 01:58:26;;;;;;;0.80;0.80;;;21.50;67.90;;;;;;6256522;28;20487;-70
2023/09/30 02:01:28;;;;;;;1.98;0.80;;;21.60;68.00;;;;;;6255965;28;20026;-69
2023/09/30 02:04:29;;;;;;;1.48;1.00;;;21.60;68.00;;;;;;6256431;28;20083;-69
2023/09/30 02:07:30;;;;;;;1.30;0.95;;;21.50;67.90;;;;;;6247938;28;20053;-70
2023/09/30 02:10:33;;;;;;;1.65;1.10;;;21.60;68.00;;;;;;6262211;28;20182;-69
2023/09/30 02:13:37;;;;;;;1.35;0.80;;;21.60;68.00;;;;;;6256003;28;20370;-69
2023/09/30 02:16:38;;;;;;;0.98;0.93;;;21.60;68.00;;;;;;6255641;28;20587;-69
2023/09/30 02:19:40;;;;;;;1.05;0.88;;;21.50;67.90;;;;;;6260977;28;20036;-69
2023/09/30 02:22:41;;;;;;;1.27;0.93;;;21.60;68.00;;;;;;6254894;28;20104;-70
2023/09/30 02:25:43;;;;;;;1.13;1.00;;;21.50;67.90;;;;;;6266777;28;20498;-71
2023/09/30 02:28:43;;;;;;;1.00;0.90;;;21.60;68.00;;;;;;6269081;28;20022;-70
2023/09/30 02:31:44;;;;;;;1.40;1.20;;;21.50;67.90;;;;;;6260426;28;20032;-69
2023/09/30 02:34:46;;;;;;;1.48;1.02;;;21.50;67.90;;;;;;6246590;28;20764;-69
2023/09/30 02:37:46;;;;;;;1.83;1.10;;;21.50;67.90;;;;;;6253323;28;20089;-70
2023/09/30 02:40:48;;;;;;;1.15;1.02;;;21.60;68.00;;;;;;6267625;28;20025;-69
2023/09/30 02:43:49;;;;;;;1.63;1.20;;;21.60;68.00;;;;;;6259365;28;20025;-70
2023/09/30 02:46:50;;;;;;;2.00;1.00;;;21.50;67.90;;;;;;6266902;28;20029;-72
2023/09/30 02:49:51;;;;;;;1.27;0.88;;;21.50;67.90;;;;;;6245742;28;20021;-69
2023/09/30 02:52:52;;;;;;;1.48;1.05;;;21.50;67.90;;;;;;6243708;28;20044;-70
2023/09/30 02:55:56;;;;;;;1.42;1.00;;;21.50;67.90;;;;;;6268101;28;20021;-69
2023/09/30 02:58:59;;;;;;;1.60;1.30;;;21.60;68.00;;;;;;6252943;28;20021;-69
2023/09/30 03:02:00;;;;;;;1.27;1.00;;;21.60;68.00;;;;;;6261280;28;20021;-70
2023/09/30 03:05:02;;;;;;;1.27;0.93;;;21.50;67.90;;;;;;6267228;28;20025;-69
2023/09/30 03:08:05;;;;;;;1.30;1.00;;;21.50;67.90;;;;;;6261270;28;20280;-69
2023/09/30 03:11:05;;;;;;;1.15;0.98;;;21.60;68.00;;;;;;6259385;28;20048;-69
2023/09/30 03:14:07;;;;;;;1.98;0.95;;;21.60;68.00;;;;;;6254843;28;20028;-69
2023/09/30 03:17:11;;;;;;;0.95;0.85;;;21.50;67.90;;;;;;6259161;28;20017;-69
2023/09/30 03:20:14;;;;;;;0.98;0.90;;;21.60;68.00;;;;;;6271742;28;20025;-70
2023/09/30 03:23:15;;;;;;;1.00;0.82;;;21.60;68.00;;;;;;6260355;28;20098;-69
2023/09/30 03:26:15;;;;;;;1.52;0.95;;;21.50;67.90;;;;;;6259914;28;20037;-69
2023/09/30 03:29:16;;;;;;;1.83;1.20;;;21.60;68.00;;;;;;6272160;28;20610;-69
2023/09/30 03:32:17;;;;;;;1.42;1.00;;;21.60;68.00;;;;;;6261233;28;20029;-70
2023/09/30 03:35:18;;;;;;;1.13;0.90;;;21.60;68.00;;;;;;6259888;28;20025;-70
2023/09/30 03:38:19;;;;;;;1.58;1.30;;;21.50;67.90;;;;;;6265346;28;20423;-70
2023/09/30 03:41:20;;;;;;;1.10;0.90;;;21.60;68.00;;;;;;6264539;28;20031;-70
2023/09/30 03:44:22;;;;;;;1.40;1.13;;;21.50;67.90;;;;;;6269519;28;20033;-69
2023/09/30 03:47:24;;;;;;;1.85;0.90;;;21.60;68.00;;;;;;6265296;28;20075;-69
2023/09/30 03:50:26;;;;;;;1.40;1.05;;;21.50;67.90;;;;;;6263012;28;20028;-71
2023/09/30 03:53:27;;;;;;;2.00;1.20;;;21.60;68.00;;;;;;6261471;28;20029;-70
2023/09/30 03:56:27;;;;;;;1.40;1.00;;;21.60;68.00;;;;;;6271431;28;20379;-71
2023/09/30 04:03:27;;;;;;;2.33;1.25;;;21.60;68.00;;;;;;6261525;28;20025;-69
2023/09/30 04:06:29;;;;;;;1.10;0.85;;;21.60;68.80;;;;;;6259546;28;20542;-69
2023/09/30 04:09:29;;;;;;;1.58;1.00;;;21.60;68.00;;;;;;6259714;28;20009;-70
2023/09/30 04:12:32;;;;;;;1.45;1.08;;;21.50;67.90;;;;;;6256673;28;20025;-70
2023/09/30 04:15:34;;;;;;;1.55;1.23;;;21.60;68.00;;;;;;6259633;28;20104;-69
2023/09/30 04:18:36;;;;;;;1.70;1.00;;;21.60;68.00;;;;;;6259859;28;20059;-69
2023/09/30 04:21:38;;;;;;;1.27;0.93;;;21.60;68.00;;;;;;6270296;28;20395;-69
2023/09/30 04:24:39;;;;;;;2.15;1.20;;;21.60;68.00;;;;;;6272023;28;20033;-69
2023/09/30 04:27:40;;;;;;;1.30;1.00;;;21.50;67.90;;;;;;6271109;28;20502;-70
2023/09/30 04:30:41;;;;;;;1.33;1.00;;;21.60;68.00;;;;;;6263286;28;20021;-69
2023/09/30 04:33:41;;;;;;;1.00;0.82;;;21.50;67.90;;;;;;6270794;28;20500;-70
2023/09/30 04:36:42;;;;;;;1.10;0.90;;;21.60;68.00;;;;;;6268888;28;20021;-70
2023/09/30 04:39:43;;;;;;;1.10;0.95;;;21.50;67.80;;;;;;6263864;28;20037;-71
2023/09/30 04:42:44;;;;;;;1.60;1.00;;;21.60;68.00;;;;;;6261968;28;20029;-69
2023/09/30 04:45:46;;;;;;;1.73;1.30;;;21.60;68.00;;;;;;6271539;28;20436;-70
2023/09/30 04:48:48;;;;;;;1.15;1.00;;;21.50;67.90;;;;;;6262126;28;20017;-70
2023/09/30 04:51:49;;;;;;;2.63;1.00;;;21.60;68.00;;;;;;6261324;28;20032;-69
2023/09/30 04:54:49;;;;;;;2.22;1.20;;;21.50;67.90;;;;;;6255568;28;20739;-69
2023/09/30 04:57:51;;;;;;;1.48;0.93;;;21.60;68.00;;;;;;6269480;28;20032;-69
2023/09/30 05:00:52;;;;;;;2.08;1.15;;;21.60;68.00;;;;;;6261267;28;20043;-68
2023/09/30 05:03:54;;;;;;;1.45;1.00;;;21.60;68.00;;;;;;6262578;28;20098;-70
2023/09/30 05:06:54;;;;;;;1.80;1.10;;;21.60;68.00;;;;;;6255774;28;20036;-69
2023/09/30 05:09:55;;;;;;;1.13;0.90;;;21.50;67.90;;;;;;6266171;28;20432;-72
2023/09/30 05:12:56;;;;;;;2.03;0.80;;;21.60;68.00;;;;;;6263657;28;20044;-71
2023/09/30 05:15:57;;;;;;;1.52;1.20;;;21.50;67.90;;;;;;6260662;28;20025;-69
2023/09/30 05:18:58;;;;;;;1.80;0.95;;;21.60;68.00;;;;;;6269625;28;20029;-69
2023/09/30 05:22:01;;;;;;;1.20;0.90;;;21.60;68.00;;;;;;6255451;28;20061;-69
2023/09/30 05:25:01;;;;;;;1.30;0.98;;;21.50;67.90;;;;;;6261710;28;20462;-69
2023/09/30 05:28:03;;;;;;;1.92;1.10;;;21.50;67.90;;;;;;6259951;28;20037;-70
2023/09/30 05:31:04;;;;;;;1.63;1.20;;;21.60;68.00;;;;;;6247790;28;20515;-69
2023/09/30 05:34:05;;;;;;;1.50;1.08;;;21.60;68.00;;;;;;6269573;28;20029;-68
2023/09/30 05:37:05;;;;;;;1.67;1.02;;;21.50;67.90;;;;;;6254866;28;20519;-69
2023/09/30 05:40:16;;;;;;;1.63;1.17;;;21.60;68.00;;;;;;6267735;28;20048;-69
2023/09/30 05:43:17;;;;;;;1.77;0.90;;;21.50;67.90;;;;;;6261980;28;20721;-69
2023/09/30 05:46:18;;;;;;;1.52;1.10;;;21.60;68.00;;;;;;6253968;28;20033;-69
2023/09/30 05:49:19;;;;;;;1.90;1.17;;;21.50;67.90;;;;;;6256367;28;20083;-69
2023/09/30 05:52:20;;;;;;;2.00;1.10;;;21.60;68.00;;;;;;6260820;28;20100;-71
2023/09/30 05:55:22;;;;;;;1.05;0.95;;;21.60;68.00;;;;;;6261767;28;20036;-69
2023/09/30 05:58:23;;;;;;;1.77;1.30;;;21.60;68.00;;;;;;6269362;28;20053;-69
2023/09/30 06:01:24;;;;;;;1.10;1.00;;;21.60;68.00;;;;;;6263668;28;20017;-69
2023/09/30 06:04:25;;;;;;;1.23;0.80;;;21.60;68.00;;;;;;6261393;28;20035;-70
2023/09/30 06:07:27;;;;;;;1.55;1.00;;;21.60;68.00;;;;;;6267624;28;20032;-69
2023/09/30 06:10:27;;;;;;;1.63;1.15;;;21.60;68.00;;;;;;6272180;28;20115;-70
2023/09/30 06:13:31;;;;;;;1.40;0.98;;;21.60;68.00;;;;;;6270855;28;20029;-70
2023/09/30 06:16:32;;;;;;;0.98;0.90;;;21.60;68.00;;;;;;6257655;28;20018;-69
2023/09/30 06:19:33;;;;;;;1.83;1.27;;;21.60;68.00;;;;;;6250942;28;20453;-69
2023/09/30 06:22:35;;;;;;;2.38;1.10;;;21.60;68.00;;;;;;6259940;28;20033;-69
2023/09/30 06:25:36;;;;;;;5.45;1.13;;;21.60;68.00;;;;;;6263102;28;20105;-69
2023/09/30 06:28:40;;;;;;;1.73;1.20;;;21.60;68.00;;;;;;6252993;28;20035;-69
2023/09/30 06:31:41;;;;;;;1.02;0.70;;;21.50;67.90;;;;;;6265509;28;20534;-69
2023/09/30 06:34:42;;;;;;;1.65;1.10;;;21.60;68.00;;;;;;6262455;28;20104;-68
2023/09/30 06:37:45;;;;;;;1.00;0.90;;;21.60;68.00;;;;;;6265344;28;20049;-70
2023/09/30 06:40:47;;;;;;;1.75;1.02;;;21.60;68.00;;;;;;6259785;28;20021;-70
2023/09/30 06:43:48;;;;;;;2.10;1.13;;;21.60;68.00;;;;;;6260434;28;20116;-70
2023/09/30 06:46:50;;;;;;;1.30;1.02;;;21.60;68.00;;;;;;6260190;28;20462;-70
2023/09/30 06:49:51;;;;;;;1.40;0.90;;;21.60;68.00;;;;;;6267450;28;20584;-69
2023/09/30 06:52:52;;;;;;;1.63;1.20;;;21.50;67.90;;;;;;6250034;28;20037;-69
2023/09/30 06:55:53;;;;;;;1.13;0.77;;;21.60;68.00;;;;;;6265612;28;20086;-70
2023/09/30 06:58:53;;;;;;;1.63;1.13;;;21.60;68.00;;;;;;6270891;28;20027;-70
2023/09/30 07:01:54;;;;;;;1.25;0.90;;;21.60;68.00;;;;;;6264779;28;20025;-69
2023/09/30 07:04:55;;;;;;;1.20;0.90;;;21.50;67.90;;;;;;6257887;28;20029;-73
2023/09/30 07:07:56;;;;;;;1.30;0.98;;;21.60;68.00;;;;;;6272995;28;20029;-70
2023/09/30 07:10:57;;;;;;;1.92;1.10;;;21.60;68.00;;;;;;6257027;28;20033;-69
2023/09/30 07:13:57;;;;;;;1.63;1.00;;;21.60;68.00;;;;;;6265833;28;20543;-69
2023/09/30 07:16:58;;;;;;;1.55;1.10;;;21.60;68.00;;;;;;6273613;28;20387;-71
2023/09/30 07:19:59;;;;;;;1.50;1.17;;;21.60;68.00;;;;;;6270626;28;20021;-70
2023/09/30 07:23:01;;;;;;;0.90;0.80;;;21.60;68.00;;;;;;6264169;28;20111;-69
2023/09/30 07:26:01;;;;;;;1.98;1.10;;;21.50;67.90;;;;;;6265317;28;20506;-70
2023/09/30 07:29:04;;;;;;;1.23;0.90;;;21.60;68.00;;;;;;6249393;28;20057;-69
2023/09/30 07:32:07;;;;;;;1.15;1.00;;;21.60;68.00;;;;;;6262796;28;20075;-70
2023/09/30 07:35:08;;;;;;;1.13;0.90;;;21.60;68.00;;;;;;6272385;28;20027;-70
2023/09/30 07:38:09;;;;;;;1.35;1.00;;;21.50;67.90;;;;;;6256401;28;20111;-69
2023/09/30 07:41:10;;;;;;;1.25;0.90;;;21.60;68.00;;;;;;6265106;28;20014;-70
2023/09/30 07:44:13;;;;;;;1.35;0.98;;;21.50;67.90;;;;;;6261248;28;20116;-68
2023/09/30 07:47:15;;;;;;;2.22;1.20;;;21.60;67.90;;;;;;6268084;28;20028;-69
2023/09/30 07:50:16;;;;;;;0.95;0.80;;;21.60;67.90;;;;;;6271605;28;20035;-68
2023/09/30 07:53:16;;;;;;;1.73;1.33;;;21.60;67.90;;;;;;6263566;28;20041;-68
2023/09/30 07:56:17;;;;;;;3.10;1.45;;;21.60;67.90;;;;;;6280050;28;20024;-70
2023/09/30 07:59:18;;;;;;;1.67;1.20;;;21.60;67.90;;;;;;6257203;28;20149;-68
2023/09/30 08:02:19;;;;;;;2.03;1.35;;;21.60;67.90;;;;;;6263047;28;20021;-69
2023/09/30 08:05:20;;;;;;;1.73;1.30;;;21.60;67.90;;;;;;6256125;28;20021;-68
2023/09/30 08:08:21;;;;;;;3.17;1.40;;;21.60;67.90;;;;;;6262262;28;20028;-67
2023/09/30 08:11:23;;;;;;;2.58;1.30;;;21.60;67.90;;;;;;6261770;28;20017;-67
2023/09/30 08:14:23;;;;;;;2.03;1.20;;;21.60;67.90;;;;;;6255105;28;20033;-67
2023/09/30 08:17:25;;;;;;;2.67;1.33;;;21.60;67.90;;;;;;6260496;28;20032;-67
2023/09/30 08:20:26;;;;;;;2.47;1.40;;;21.60;67.80;;;;;;6256883;28;20036;-67
2023/09/30 08:23:27;;;;;;;2.10;1.20;;;21.60;67.70;;;;;;6264904;28;20029;-67
2023/09/30 08:26:27;;;;;;;6.30;2.22;;;21.60;67.80;;;;;;6257687;28;20098;-67
2023/09/30 08:29:28;;;;;;;7.50;2.65;;;21.60;64.30;;;;;;6261494;28;20057;-67
2023/09/30 08:32:29;;;;;;;14.63;3.22;;;21.60;61.50;;;;;;6265276;28;20041;-67
2023/09/30 08:35:31;;;;;;;14.88;3.22;;;21.80;59.90;;;;;;6260269;28;20649;-68
2023/09/30 08:38:32;;;;;;;12.10;3.03;;;21.90;59.00;;;;;;6257006;28;20037;-68
2023/09/30 08:41:34;;;;;;;12.23;3.33;;;21.90;58.20;;;;;;6257131;28;20163;-67
2023/09/30 08:44:37;;;;;;;17.75;3.80;;;22.00;57.60;;;;;;6268545;28;20017;-68
2023/09/30 08:47:40;;;;;;;14.38;2.95;;;22.10;57.50;;;;;;6252718;28;20040;-68
2023/09/30 08:50:42;;;;;;;13.90;3.25;;;22.20;56.80;;;;;;6259284;28;20565;-68
2023/09/30 08:53:44;;;;;;;13.75;3.00;;;22.30;56.60;;;;;;6265739;28;20500;-69
2023/09/30 08:56:49;;;;;;;11.77;3.40;;;22.20;56.30;;;;;;6261856;28;20029;-68
2023/09/30 08:59:50;;;;;;;;;;;22.30;56.20;;;;;;6260343;28;20486;-68
2023/09/30 09:02:51;;;;;;;18.08;3.60;;;22.40;56.10;;;;;;6266867;28;19954;-68
2023/09/30 09:05:59;;;;;;;19.27;4.38;;;22.40;56.30;;;;;;6255056;28;20078;-68
2023/09/30 09:09:22;;;;;;;15.60;3.58;;;22.40;56.40;;;;;;6247146;28;20029;-69
2023/09/30 09:12:23;;;;;;;15.13;3.72;;;22.50;56.00;;;;;;6265876;28;20380;-66
2023/09/30 09:15:25;;;;;;;16.38;3.67;;;22.50;56.30;;;;;;6261470;28;20021;-68
2023/09/30 09:18:33;;;;;;;15.65;2.88;;;22.50;55.60;;;;;;6261926;28;20033;-68
2023/09/30 09:21:34;;;;;;;16.67;3.70;;;22.40;55.60;;;;;;6269505;28;20032;-69
2023/09/30 09:24:38;;;;;;;11.48;2.80;;;22.40;55.50;;;;;;6255007;28;20030;-68
2023/09/30 09:27:39;;;;;;;14.88;4.15;;;22.40;55.80;;;;;;6264088;28;20029;-68
2023/09/30 09:30:40;;;;;;;15.48;3.28;;;22.40;55.50;;;;;;6260843;28;20100;-68
2023/09/30 09:33:42;;;;;;;13.32;3.38;;;22.50;55.60;;;;;;6256986;28;20021;-69
2023/09/30 09:36:45;;;;;;;14.98;3.90;;;22.50;55.60;;;;;;6271314;28;20096;-68
2023/09/30 09:39:55;;;;;;;15.68;3.70;;;22.50;55.60;;;;;;6265209;28;20077;-69
2023/09/30 09:42:57;;;;;;;14.95;2.80;;;22.40;55.30;;;;;;6266258;28;20025;-69
2023/09/30 09:45:58;;;;;;;14.63;3.50;;;22.50;55.60;;;;;;6257861;28;20029;-71
2023/09/30 09:48:59;;;;;;;14.30;3.55;;;22.50;55.20;;;;;;6265044;28;20128;-68
2023/09/30 09:52:01;;;;;;;13.75;3.60;;;22.50;55.10;;;;;;6254420;28;20055;-68
2023/09/30 09:55:02;;;;;;;11.65;3.63;;;22.50;55.00;;;;;;6265426;28;20575;-69
2023/09/30 09:58:04;;;;;;;10.38;2.65;;;22.50;55.10;;;;;;6253215;28;20013;-69
2023/09/30 10:01:09;;;;;;;8.95;3.00;;;22.50;54.90;;;;;;6258848;28;20108;-69
2023/09/30 10:04:15;;;;;;;14.35;3.20;;;22.50;55.20;;;;;;6250963;28;20026;-68
2023/09/30 10:07:26;;;;;;;11.18;3.20;;;22.50;54.90;;;;;;6254037;28;20107;-69
2023/09/30 10:10:28;;;;;;;11.77;3.03;;;22.50;54.90;;;;;;6257556;28;20037;-69
2023/09/30 10:14:00;;;;;;;13.30;2.75;;;22.50;54.60;;;;;;6264872;28;20025;-69
2023/09/30 10:17:01;;;;;;;12.65;3.33;;;22.50;54.60;;;;;;6265093;28;20024;-68
2023/09/30 10:20:07;;;;;;;12.90;2.78;;;22.50;54.60;;;;;;6264749;28;20021;-69
2023/09/30 10:23:17;;;;;;;8.65;2.60;;;22.50;54.30;;;;;;6252408;28;20059;-68
2023/09/30 10:26:19;;;;;;;14.20;3.10;;;22.50;54.40;;;;;;6262384;28;20099;-69
2023/09/30 10:29:20;;;;;;;9.18;2.35;;;22.50;54.30;;;;;;6253843;28;20255;-69
2023/09/30 10:32:21;;;;;;;10.82;2.78;;;22.50;54.50;;;;;;6265544;28;20029;-68
2023/09/30 10:35:31;;;;;;;25.08;3.78;;;22.60;54.70;;;;;;6269649;28;20514;-68
2023/09/30 10:38:34;;;;;;;34.35;3.72;;;22.70;54.20;;;;;;6267714;28;20447;-68
2023/09/30 10:41:44;;;;;;;27.45;3.60;;;22.80;54.60;;;;;;6255408;28;20127;-68
2023/09/30 10:44:45;;;;;;;18.13;2.95;;;22.90;54.70;;;;;;6254422;28;20039;-68
2023/09/30 10:47:48;;;;;;;31.83;2.85;;;22.90;55.30;;;;;;6252861;28;20163;-68
2023/09/30 10:50:55;;;;;;;34.50;3.97;;;22.90;54.80;;;;;;6257190;28;20024;-68
2023/09/30 10:54:00;;;;;;;28.58;3.58;;;23.00;55.00;;;;;;6257762;28;20033;-68
2023/09/30 10:57:03;;;;;;;66.45;4.63;;;23.00;55.50;;;;;;6256891;28;20404;-69
2023/09/30 11:00:16;;;;;;;285.60;14.57;;;23.00;55.30;;;;;;6251131;28;20032;-68
2023/09/30 11:03:22;;;;;;;133.70;9.20;;;23.00;56.80;;;;;;6254897;28;20032;-68
2023/09/30 11:06:23;;;;;;;109.97;8.20;;;23.00;55.50;;;;;;6259452;28;20036;-68
2023/09/30 11:09:24;;;;;;;99.78;7.65;;;23.00;54.70;;;;;;6257972;28;20477;-68
2023/09/30 11:12:25;;;;;;;88.43;7.88;;;23.00;55.00;;;;;;6255238;28;20108;-68
2023/09/30 11:15:27;;;;;;;67.38;8.35;;;23.00;54.80;;;;;;6251636;28;20465;-68
2023/09/30 11:18:29;;;;;;;87.88;7.18;;;23.10;54.80;;;;;;6252752;28;20017;-68
2023/09/30 11:21:30;;;;;;;72.95;7.82;;;23.10;55.10;;;;;;6261470;28;20029;-68
2023/09/30 11:24:36;;;;;;;58.67;6.05;;;23.20;55.20;;;;;;6248991;28;20029;-69
2023/09/30 11:27:37;;;;;;;74.70;7.85;;;23.20;55.00;;;;;;6254357;28;20029;-69
2023/09/30 11:30:56;;;;;;;76.65;7.90;;;23.20;55.00;;;;;;6258978;28;20499;-69
2023/09/30 11:34:00;;;;;;;191.43;11.43;;;23.20;57.00;;;;;;6248808;28;20100;-69
2023/09/30 11:37:02;;;;;;;100.03;6.40;;;23.10;56.90;;;;;;6263732;28;20029;-68
2023/09/30 11:40:16;;;;;;;77.45;6.60;;;23.10;55.90;;;;;;6266237;28;20063;-68
2023/09/30 11:43:16;;;;;;;58.80;6.47;;;23.00;56.40;;;;;;6266393;28;20033;-68
2023/09/30 11:46:17;;;;;;;51.75;5.57;;;23.00;55.90;;;;;;6255821;28;20463;-69
2023/09/30 11:49:53;;;;;;;40.05;4.78;;;23.00;55.00;;;;;;6261007;28;20139;-69
2023/09/30 11:52:55;;;;;;;65.35;7.55;;;23.00;54.60;;;;;;6267923;28;20040;-69
2023/09/30 11:55:59;;;;;;;36.97;5.00;;;22.90;54.10;;;;;;6262420;28;20024;-70
2023/09/30 11:59:02;;;;;;;36.92;4.78;;;22.90;54.30;;;;;;6260066;28;20051;-69
2023/09/30 12:02:05;;;;;;;24.98;4.15;;;22.90;54.50;;;;;;6266874;28;20031;-69
2023/09/30 12:05:11;;;;;;;38.45;4.20;;;23.00;55.00;;;;;;6260508;28;20055;-70
2023/09/30 12:08:12;;;;;;;25.77;4.05;;;23.00;55.00;;;;;;6262845;28;20120;-69
2023/09/30 12:11:15;;;;;;;27.10;4.65;;;23.00;55.00;;;;;;6267633;28;20033;-69
2023/09/30 12:14:17;;;;;;;19.20;3.13;;;23.00;55.00;;;;;;6268255;28;20031;-69
2023/09/30 12:17:18;;;;;;;24.27;3.72;;;23.00;55.00;;;;;;6263020;28;20159;-69
2023/09/30 12:20:19;;;;;;;22.70;3.58;;;22.90;54.80;;;;;;6267947;28;20826;-69
2023/09/30 12:23:19;;;;;;;21.33;3.90;;;23.00;54.80;;;;;;6260450;28;20025;-68
2023/09/30 12:26:20;;;;;;;13.30;3.42;;;23.00;54.80;;;;;;6268780;28;20079;-69
2023/09/30 12:29:22;;;;;;;18.00;3.35;;;23.00;54.90;;;;;;6262102;28;20155;-69
2023/09/30 12:32:24;;;;;;;16.80;3.40;;;22.90;54.80;;;;;;6267676;28;20037;-69
2023/09/30 12:35:24;;;;;;;12.95;3.25;;;23.00;54.90;;;;;;6252096;28;20444;-69
2023/09/30 12:38:27;;;;;;;11.88;2.28;;;23.00;54.80;;;;;;6267374;28;20048;-69
2023/09/30 12:41:29;;;;;;;9.80;2.42;;;23.00;54.80;;;;;;6258166;28;20013;-69
2023/09/30 12:44:30;;;;;;;12.57;2.42;;;23.00;54.70;;;;;;6260175;28;20025;-69
2023/09/30 12:47:31;;;;;;;11.38;2.55;;;23.00;54.80;;;;;;6265165;28;20036;-69
2023/09/30 12:50:32;;;;;;;11.13;2.90;;;23.00;54.70;;;;;;6264838;28;20025;-69
2023/09/30 12:53:33;;;;;;;9.32;2.75;;;23.00;54.60;;;;;;6266546;28;20033;-69
2023/09/30 12:56:34;;;;;;;8.35;2.17;;;23.00;54.70;;;;;;6262501;28;20021;-69
2023/09/30 12:59:34;;;;;;;8.07;2.45;;;23.00;54.60;;;;;;6255214;28;20053;-69
2023/09/30 13:02:35;;;;;;;9.70;2.58;;;23.00;54.70;;;;;;6258091;28;20373;-69
2023/09/30 13:05:36;;;;;;;9.10;2.35;;;23.00;54.50;;;;;;6262854;28;20027;-69
2023/09/30 13:08:37;;;;;;;10.73;2.58;;;23.00;54.50;;;;;;6264013;28;20037;-69
2023/09/30 13:11:38;;;;;;;8.32;2.45;;;23.00;54.40;;;;;;6266753;28;20429;-69
2023/09/30 13:14:39;;;;;;;10.70;2.10;;;22.90;54.40;;;;;;6256725;28;20026;-69
2023/09/30 13:17:39;;;;;;;6.13;2.05;;;22.90;54.30;;;;;;6258910;28;20072;-68
2023/09/30 13:20:40;;;;;;;7.15;2.08;;;23.00;54.40;;;;;;6265655;28;20029;-69
2023/09/30 13:23:42;;;;;;;12.77;2.40;;;23.00;54.50;;;;;;6261177;28;20547;-69
2023/09/30 13:26:42;;;;;;;11.30;2.13;;;23.00;54.40;;;;;;6266436;28;20025;-68
2023/09/30 13:29:45;;;;;;;17.45;1.80;;;23.00;54.10;;;;;;6266708;28;20029;-67
2023/09/30 13:32:46;;;;;;;11.13;2.08;;;23.00;54.10;;;;;;6267998;28;20022;-67
2023/09/30 13:35:47;;;;;;;17.58;2.78;;;23.00;53.50;;;;;;6267942;28;20090;-67
2023/09/30 13:38:49;;;;;;;21.23;2.22;;;23.10;54.00;;;;;;6267678;28;20512;-67
2023/09/30 13:41:49;;;;;;;12.45;2.33;;;23.00;54.00;;;;;;6274831;28;20028;-67
2023/09/30 13:44:51;;;;;;;12.02;2.22;;;23.00;54.00;;;;;;6273605;28;20395;-67
2023/09/30 13:47:51;;;;;;;16.70;2.65;;;23.00;53.90;;;;;;6267056;28;20403;-69
2023/09/30 13:50:52;;;;;;;10.50;1.63;;;23.00;54.00;;;;;;6267595;28;20021;-67
2023/09/30 13:53:53;;;;;;;12.13;2.17;;;23.00;54.00;;;;;;6275299;28;20036;-68
2023/09/30 13:56:54;;;;;;;8.20;1.77;;;23.10;54.00;;;;;;6265928;28;20593;-66
2023/09/30 13:59:55;;;;;;;8.02;2.30;;;23.00;53.90;;;;;;6258900;28;20116;-67
2023/09/30 14:02:55;;;;;;;15.10;2.17;;;23.00;53.70;;;;;;6275384;28;20028;-71
2023/09/30 14:05:57;;;;;;;11.35;2.03;;;23.00;53.40;;;;;;6259025;28;20044;-67
2023/09/30 14:08:57;;;;;;;13.23;2.60;;;23.00;53.40;;;;;;6266437;28;20029;-68
2023/09/30 14:11:58;;;;;;;20.20;2.10;;;23.00;53.20;;;;;;6267775;28;20024;-67
2023/09/30 14:14:59;;;;;;;13.82;2.50;;;23.00;52.40;;;;;;6267198;28;20040;-69
2023/09/30 14:18:01;;;;;;;7.82;2.10;;;23.00;52.00;;;;;;6265693;28;20017;-70
2023/09/30 14:21:02;;;;;;;12.32;2.08;;;23.00;51.70;;;;;;6269125;28;20384;-70
2023/09/30 14:24:03;;;;;;;16.00;2.53;;;23.00;52.70;;;;;;6267283;28;20036;-69
2023/09/30 14:27:05;;;;;;;7.82;1.80;;;23.00;52.20;;;;;;6264725;28;20056;-69
2023/09/30 14:30:06;;;;;;;13.65;2.53;;;23.00;51.90;;;;;;6267280;28;20025;-68
2023/09/30 14:33:07;;;;;;;10.30;2.03;;;23.00;52.00;;;;;;6275527;28;20031;-67
2023/09/30 14:36:08;;;;;;;11.95;1.80;;;23.00;51.70;;;;;;6283373;28;20021;-68
2023/09/30 14:39:10;;;;;;;6.88;1.75;;;23.00;51.70;;;;;;6267364;28;20041;-67
2023/09/30 14:42:10;;;;;;;8.82;1.77;;;23.00;51.40;;;;;;6269635;28;20025;-68
2023/09/30 14:45:11;;;;;;;7.40;1.95;;;23.00;51.40;;;;;;6269502;28;20036;-68
2023/09/30 14:48:14;;;;;;;13.85;2.38;;;22.90;51.60;;;;;;6252738;28;20087;-68
2023/09/30 14:51:15;;;;;;;6.57;2.13;;;22.90;51.50;;;;;;6255749;28;20112;-69
2023/09/30 14:54:16;;;;;;;10.95;2.15;;;22.90;51.10;;;;;;6260937;28;20074;-70
2023/09/30 14:57:19;;;;;;;18.38;1.83;;;22.90;51.30;;;;;;6260011;28;20025;-67
2023/09/30 15:00:22;;;;;;;13.32;1.90;;;22.90;52.00;;;;;;6252750;28;20140;-70
2023/09/30 15:03:23;;;;;;;12.43;1.77;;;22.90;51.10;;;;;;6275555;28;20023;-68
2023/09/30 15:06:24;;;;;;;12.02;2.22;;;22.90;50.80;;;;;;6268680;28;20025;-68
2023/09/30 15:09:24;;;;;;;7.05;1.80;;;22.90;50.90;;;;;;6258137;28;20021;-69
2023/09/30 15:12:25;;;;;;;8.13;2.38;;;22.90;50.60;;;;;;6266938;28;20037;-69
2023/09/30 15:15:26;;;;;;;7.63;1.90;;;22.90;50.50;;;;;;6268683;28;20159;-67
2023/09/30 15:18:27;;;;;;;7.38;1.70;;;22.90;50.60;;;;;;6254876;28;20028;-68
2023/09/30 15:21:28;;;;;;;8.75;1.83;;;22.90;50.80;;;;;;6267374;28;20021;-68
2023/09/30 15:24:29;;;;;;;14.23;2.28;;;22.90;50.70;;;;;;6267956;28;20040;-69
2023/09/30 15:27:31;;;;;;;9.32;2.15;;;22.90;50.70;;;;;;6262276;28;20025;-67
2023/09/30 15:30:32;;;;;;;10.30;1.85;;;22.90;50.50;;;;;;6268405;28;20093;-71
2023/09/30 15:33:32;;;;;;;12.65;2.03;;;22.90;50.20;;;;;;6267273;28;20036;-70
2023/09/30 15:36:33;;;;;;;20.15;2.38;;;22.80;50.10;;;;;;6294157;28;20063;-68
2023/09/30 15:39:39;;;;;;;8.43;2.20;;;22.90;50.40;;;;;;6296298;28;20567;-69
2023/09/30 15:42:40;;;;;;;16.85;2.58;;;22.90;50.20;;;;;;6257565;28;20409;-69
2023/09/30 15:45:40;;;;;;;10.65;2.00;;;22.90;50.00;;;;;;6269787;28;20020;-71